sensor_id;sensor_type;location;lat;lon;timestamp;pressure;altitude;pressure_sealevel;temperature;humidity
51147;BME280;37207;53.060;18.726;2023-01-26T00:03:35;101605.27;;;-1.08;95.87
51147;BME280;37207;53.060;18.726;2023-01-26T00:06:05;101603.95;;;-1.08;95.92
51147;BME280;37207;53.060;18.726;2023-01-26T00:08:40;101599.23;;;-1.08;95.74
51147;BME280;37207;53.060;18.726;2023-01-26T00:11:10;101596.83;;;-1.09;95.94
51147;BME280;37207;53.060;18.726;2023-01-26T00:13:37;101592.95;;;-1.09;95.74
51147;BME280;37207;53.060;18.726;2023-01-26T00:16:08;101591.95;;;-1.09;95.95
51147;BME280;37207;53.060;18.726;2023-01-26T00:18:36;101587.30;;;-1.09;95.92
51147;BME280;37207;53.060;18.726;2023-01-26T00:21:05;101587.68;;;-1.09;96.03
51147;BME280;37207;53.060;18.726;2023-01-26T00:23:33;101580.80;;;-1.09;95.83
51147;BME280;37207;53.060;18.726;2023-01-26T00:26:00;101587.23;;;-1.08;95.80
51147;BME280;37207;53.060;18.726;2023-01-26T00:28:27;101579.86;;;-1.08;95.96
51147;BME280;37207;53.060;18.726;2023-01-26T00:31:02;101580.57;;;-1.08;95.94
51147;BME280;37207;53.060;18.726;2023-01-26T00:33:29;101582.89;;;-1.07;96.09
51147;BME280;37207;53.060;18.726;2023-01-26T00:35:56;101581.41;;;-1.07;96.10
51147;BME280;37207;53.060;18.726;2023-01-26T00:38:23;101579.10;;;-1.07;96.04
51147;BME280;37207;53.060;18.726;2023-01-26T00:40:50;101574.36;;;-1.08;96.06
51147;BME280;37207;53.060;18.726;2023-01-26T00:43:16;101582.73;;;-1.07;96.06
51147;BME280;37207;53.060;18.726;2023-01-26T00:45:43;101584.20;;;-1.07;96.20
51147;BME280;37207;53.060;18.726;2023-01-26T00:48:10;101580.50;;;-1.06;96.29
51147;BME280;37207;53.060;18.726;2023-01-26T00:50:37;101578.80;;;-1.05;96.27
51147;BME280;37207;53.060;18.726;2023-01-26T00:53:03;101577.33;;;-1.05;96.58
51147;BME280;37207;53.060;18.726;2023-01-26T00:55:30;101576.32;;;-1.04;96.25
51147;BME280;37207;53.060;18.726;2023-01-26T00:58:05;101576.29;;;-1.03;96.30
51147;BME280;37207;53.060;18.726;2023-01-26T01:00:34;101573.20;;;-1.03;96.45
51147;BME280;37207;53.060;18.726;2023-01-26T01:03:01;101570.95;;;-1.03;96.31
51147;BME280;37207;53.060;18.726;2023-01-26T01:05:30;101565.77;;;-1.03;96.05
51147;BME280;37207;53.060;18.726;2023-01-26T01:07:57;101563.91;;;-1.03;96.55
51147;BME280;37207;53.060;18.726;2023-01-26T01:10:24;101556.30;;;-1.03;96.48
51147;BME280;37207;53.060;18.726;2023-01-26T01:12:52;101550.12;;;-1.03;96.54
51147;BME280;37207;53.060;18.726;2023-01-26T01:15:19;101550.95;;;-1.03;96.57
51147;BME280;37207;53.060;18.726;2023-01-26T01:17:45;101547.31;;;-1.03;96.53
51147;BME280;37207;53.060;18.726;2023-01-26T01:20:12;101542.98;;;-1.03;97.03
51147;BME280;37207;53.060;18.726;2023-01-26T01:22:40;101540.65;;;-1.02;96.73
51147;BME280;37207;53.060;18.726;2023-01-26T01:25:07;101540.65;;;-1.02;96.99
51147;BME280;37207;53.060;18.726;2023-01-26T01:27:34;101539.73;;;-1.02;96.60
51147;BME280;37207;53.060;18.726;2023-01-26T01:30:01;101540.42;;;-1.03;96.44
51147;BME280;37207;53.060;18.726;2023-01-26T01:32:34;101537.48;;;-1.03;96.68
51147;BME280;37207;53.060;18.726;2023-01-26T01:35:02;101536.56;;;-1.04;96.88
51147;BME280;37207;53.060;18.726;2023-01-26T01:37:29;101537.41;;;-1.04;96.60
51147;BME280;37207;53.060;18.726;2023-01-26T01:39:56;101539.50;;;-1.03;96.84
51147;BME280;37207;53.060;18.726;2023-01-26T01:42:23;101532.06;;;-1.04;96.78
51147;BME280;37207;53.060;18.726;2023-01-26T01:47:54;101531.44;;;-1.04;96.82
51147;BME280;37207;53.060;18.726;2023-01-26T01:50:23;101530.98;;;-1.04;96.65
51147;BME280;37207;53.060;18.726;2023-01-26T01:52:51;101529.28;;;-1.06;96.74
51147;BME280;37207;53.060;18.726;2023-01-26T01:55:19;101529.43;;;-1.06;97.04
51147;BME280;37207;53.060;18.726;2023-01-26T01:57:52;101529.12;;;-1.06;97.11
51147;BME280;37207;53.060;18.726;2023-01-26T02:00:22;101526.42;;;-1.04;97.10
51147;BME280;37207;53.060;18.726;2023-01-26T02:02:53;101519.67;;;-1.04;97.08
51147;BME280;37207;53.060;18.726;2023-01-26T02:06:04;101515.27;;;-1.04;97.09
51147;BME280;37207;53.060;18.726;2023-01-26T02:08:38;101511.45;;;-1.02;97.19
51147;BME280;37207;53.060;18.726;2023-01-26T02:11:11;101504.09;;;-1.02;97.37
51147;BME280;37207;53.060;18.726;2023-01-26T02:13:41;101498.89;;;-1.02;97.21
51147;BME280;37207;53.060;18.726;2023-01-26T02:16:09;101494.71;;;-1.02;97.07
51147;BME280;37207;53.060;18.726;2023-01-26T02:18:36;101497.03;;;-1.02;97.21
51147;BME280;37207;53.060;18.726;2023-01-26T02:21:05;101497.66;;;-1.02;97.19
51147;BME280;37207;53.060;18.726;2023-01-26T02:26:20;101491.62;;;-0.99;97.53
51147;BME280;37207;53.060;18.726;2023-01-26T02:28:50;101481.00;;;-0.99;97.51
51147;BME280;37207;53.060;18.726;2023-01-26T02:31:17;101480.30;;;-0.98;97.61
51147;BME280;37207;53.060;18.726;2023-01-26T02:33:45;101480.70;;;-0.98;97.25
51147;BME280;37207;53.060;18.726;2023-01-26T02:36:21;101476.13;;;-0.98;97.72
51147;BME280;37207;53.060;18.726;2023-01-26T02:39:24;101476.98;;;-0.97;97.44
51147;BME280;37207;53.060;18.726;2023-01-26T02:41:55;101477.77;;;-0.97;97.68
51147;BME280;37207;53.060;18.726;2023-01-26T02:44:41;101473.81;;;-0.96;97.45
51147;BME280;37207;53.060;18.726;2023-01-26T02:47:13;101471.95;;;-0.95;97.50
51147;BME280;37207;53.060;18.726;2023-01-26T02:49:41;101468.70;;;-0.94;97.61
51147;BME280;37207;53.060;18.726;2023-01-26T02:52:15;101467.92;;;-0.94;97.99
51147;BME280;37207;53.060;18.726;2023-01-26T02:54:44;101462.59;;;-0.92;98.02
51147;BME280;37207;53.060;18.726;2023-01-26T02:57:29;101457.47;;;-0.91;97.83
51147;BME280;37207;53.060;18.726;2023-01-26T02:59:56;101450.89;;;-0.91;98.00
51147;BME280;37207;53.060;18.726;2023-01-26T03:02:22;101449.88;;;-0.89;97.86
51147;BME280;37207;53.060;18.726;2023-01-26T03:04:49;101449.34;;;-0.89;97.88
51147;BME280;37207;53.060;18.726;2023-01-26T03:07:16;101439.19;;;-0.89;97.71
51147;BME280;37207;53.060;18.726;2023-01-26T03:09:42;101442.60;;;-0.88;97.76
51147;BME280;37207;53.060;18.726;2023-01-26T03:12:09;101444.77;;;-0.88;97.63
51147;BME280;37207;53.060;18.726;2023-01-26T03:14:36;101442.06;;;-0.87;97.96
51147;BME280;37207;53.060;18.726;2023-01-26T03:17:02;101444.85;;;-0.87;97.82
51147;BME280;37207;53.060;18.726;2023-01-26T03:19:29;101443.89;;;-0.86;97.80
51147;BME280;37207;53.060;18.726;2023-01-26T03:22:15;101438.32;;;-0.86;97.80
51147;BME280;37207;53.060;18.726;2023-01-26T03:25:00;101434.91;;;-0.86;97.95
51147;BME280;37207;53.060;18.726;2023-01-26T03:27:47;101431.04;;;-0.85;97.90
51147;BME280;37207;53.060;18.726;2023-01-26T03:30:17;101432.35;;;-0.85;98.10
51147;BME280;37207;53.060;18.726;2023-01-26T03:32:44;101431.27;;;-0.85;98.14
51147;BME280;37207;53.060;18.726;2023-01-26T03:35:13;101432.50;;;-0.84;98.31
51147;BME280;37207;53.060;18.726;2023-01-26T03:37:48;101434.83;;;-0.84;98.26
51147;BME280;37207;53.060;18.726;2023-01-26T03:40:26;101430.95;;;-0.83;98.34
51147;BME280;37207;53.060;18.726;2023-01-26T03:43:11;101430.19;;;-0.82;98.32
51147;BME280;37207;53.060;18.726;2023-01-26T03:45:56;101423.60;;;-0.81;98.12
51147;BME280;37207;53.060;18.726;2023-01-26T03:48:42;101409.34;;;-0.81;98.22
51147;BME280;37207;53.060;18.726;2023-01-26T03:51:27;101409.10;;;-0.81;98.40
51147;BME280;37207;53.060;18.726;2023-01-26T03:54:13;101403.36;;;-0.80;98.29
51147;BME280;37207;53.060;18.726;2023-01-26T03:56:59;101400.80;;;-0.79;98.34
51147;BME280;37207;53.060;18.726;2023-01-26T03:59:26;101398.57;;;-0.78;98.14
51147;BME280;37207;53.060;18.726;2023-01-26T04:02:10;101395.46;;;-0.79;98.52
51147;BME280;37207;53.060;18.726;2023-01-26T04:04:56;101389.97;;;-0.78;98.54
51147;BME280;37207;53.060;18.726;2023-01-26T04:07:45;101389.42;;;-0.78;98.62
51147;BME280;37207;53.060;18.726;2023-01-26T04:10:31;101385.63;;;-0.77;98.50
51147;BME280;37207;53.060;18.726;2023-01-26T04:13:00;101382.06;;;-0.77;98.75
51147;BME280;37207;53.060;18.726;2023-01-26T04:15:51;101373.54;;;-0.76;98.72
51147;BME280;37207;53.060;18.726;2023-01-26T04:18:36;101373.69;;;-0.76;98.76
51147;BME280;37207;53.060;18.726;2023-01-26T04:21:22;101382.76;;;-0.75;98.59
51147;BME280;37207;53.060;18.726;2023-01-26T04:23:56;101388.56;;;-0.75;98.68
51147;BME280;37207;53.060;18.726;2023-01-26T04:26:28;101385.16;;;-0.74;98.77
51147;BME280;37207;53.060;18.726;2023-01-26T04:29:02;101378.81;;;-0.74;98.71
51147;BME280;37207;53.060;18.726;2023-01-26T04:31:29;101377.95;;;-0.73;98.78
51147;BME280;37207;53.060;18.726;2023-01-26T04:33:57;101378.73;;;-0.72;98.87
51147;BME280;37207;53.060;18.726;2023-01-26T04:36:24;101377.19;;;-0.72;98.45
51147;BME280;37207;53.060;18.726;2023-01-26T04:38:51;101376.48;;;-0.71;98.57
51147;BME280;37207;53.060;18.726;2023-01-26T04:41:19;101376.48;;;-0.71;98.60
51147;BME280;37207;53.060;18.726;2023-01-26T04:43:52;101374.77;;;-0.70;98.79
51147;BME280;37207;53.060;18.726;2023-01-26T04:46:18;101369.42;;;-0.70;98.87
51147;BME280;37207;53.060;18.726;2023-01-26T04:48:45;101371.20;;;-0.69;98.66
51147;BME280;37207;53.060;18.726;2023-01-26T04:51:14;101372.12;;;-0.68;98.89
51147;BME280;37207;53.060;18.726;2023-01-26T04:53:42;101369.32;;;-0.67;99.00
51147;BME280;37207;53.060;18.726;2023-01-26T04:56:21;101364.28;;;-0.67;99.05
51147;BME280;37207;53.060;18.726;2023-01-26T04:58:50;101363.83;;;-0.65;99.02
51147;BME280;37207;53.060;18.726;2023-01-26T05:01:17;101363.27;;;-0.63;98.98
51147;BME280;37207;53.060;18.726;2023-01-26T05:03:45;101365.21;;;-0.62;98.91
51147;BME280;37207;53.060;18.726;2023-01-26T05:06:12;101362.27;;;-0.61;99.03
51147;BME280;37207;53.060;18.726;2023-01-26T05:08:40;101361.57;;;-0.60;98.90
51147;BME280;37207;53.060;18.726;2023-01-26T05:11:08;101366.85;;;-0.60;99.02
51147;BME280;37207;53.060;18.726;2023-01-26T05:13:53;101366.45;;;-0.59;98.97
51147;BME280;37207;53.060;18.726;2023-01-26T05:16:35;101364.44;;;-0.58;99.00
51147;BME280;37207;53.060;18.726;2023-01-26T05:19:25;101358.23;;;-0.57;99.16
51147;BME280;37207;53.060;18.726;2023-01-26T05:22:12;101352.35;;;-0.57;99.18
51147;BME280;37207;53.060;18.726;2023-01-26T05:24:41;101351.10;;;-0.57;99.08
51147;BME280;37207;53.060;18.726;2023-01-26T05:27:22;101350.88;;;-0.56;98.89
51147;BME280;37207;53.060;18.726;2023-01-26T05:29:51;101344.27;;;-0.56;99.10
51147;BME280;37207;53.060;18.726;2023-01-26T05:32:20;101346.45;;;-0.55;99.16
51147;BME280;37207;53.060;18.726;2023-01-26T05:34:49;101345.44;;;-0.55;99.29
51147;BME280;37207;53.060;18.726;2023-01-26T05:37:15;101344.27;;;-0.54;99.17
51147;BME280;37207;53.060;18.726;2023-01-26T05:39:44;101341.88;;;-0.53;99.09
51147;BME280;37207;53.060;18.726;2023-01-26T05:42:11;101344.40;;;-0.51;99.16
51147;BME280;37207;53.060;18.726;2023-01-26T05:44:57;101351.92;;;-0.50;98.93
51147;BME280;37207;53.060;18.726;2023-01-26T05:47:24;101351.84;;;-0.49;99.03
51147;BME280;37207;53.060;18.726;2023-01-26T05:49:50;101356.80;;;-0.47;99.07
51147;BME280;37207;53.060;18.726;2023-01-26T05:52:22;101354.40;;;-0.46;99.13
51147;BME280;37207;53.060;18.726;2023-01-26T05:54:50;101355.72;;;-0.45;99.08
51147;BME280;37207;53.060;18.726;2023-01-26T05:57:18;101353.70;;;-0.45;98.96
51147;BME280;37207;53.060;18.726;2023-01-26T05:59:49;101350.38;;;-0.44;99.08
51147;BME280;37207;53.060;18.726;2023-01-26T06:02:17;101353.01;;;-0.43;98.96
51147;BME280;37207;53.060;18.726;2023-01-26T06:04:44;101345.56;;;-0.43;99.05
51147;BME280;37207;53.060;18.726;2023-01-26T06:07:11;101342.61;;;-0.42;99.13
51147;BME280;37207;53.060;18.726;2023-01-26T06:09:46;101345.79;;;-0.41;99.31
51147;BME280;37207;53.060;18.726;2023-01-26T06:12:22;101349.44;;;-0.41;99.07
51147;BME280;37207;53.060;18.726;2023-01-26T06:14:55;101348.97;;;-0.40;99.34
51147;BME280;37207;53.060;18.726;2023-01-26T06:17:22;101347.96;;;-0.40;99.28
51147;BME280;37207;53.060;18.726;2023-01-26T06:19:55;101345.80;;;-0.39;99.13
51147;BME280;37207;53.060;18.726;2023-01-26T06:22:22;101344.55;;;-0.39;99.25
51147;BME280;37207;53.060;18.726;2023-01-26T06:24:50;101339.20;;;-0.38;99.12
51147;BME280;37207;53.060;18.726;2023-01-26T06:27:17;101334.85;;;-0.39;99.08
51147;BME280;37207;53.060;18.726;2023-01-26T06:29:45;101334.63;;;-0.40;99.11
51147;BME280;37207;53.060;18.726;2023-01-26T06:32:12;101337.48;;;-0.40;99.24
51147;BME280;37207;53.060;18.726;2023-01-26T06:34:40;101346.02;;;-0.39;99.15
51147;BME280;37207;53.060;18.726;2023-01-26T06:37:06;101342.61;;;-0.39;99.18
51147;BME280;37207;53.060;18.726;2023-01-26T06:39:36;101347.11;;;-0.39;99.19
51147;BME280;37207;53.060;18.726;2023-01-26T06:42:03;101357.42;;;-0.39;99.17
51147;BME280;37207;53.060;18.726;2023-01-26T06:44:30;101359.36;;;-0.39;99.20
51147;BME280;37207;53.060;18.726;2023-01-26T06:46:56;101363.02;;;-0.39;99.31
51147;BME280;37207;53.060;18.726;2023-01-26T06:49:23;101361.92;;;-0.38;99.29
51147;BME280;37207;53.060;18.726;2023-01-26T06:51:55;101359.90;;;-0.37;99.17
51147;BME280;37207;53.060;18.726;2023-01-26T06:54:36;101361.38;;;-0.37;99.50
51147;BME280;37207;53.060;18.726;2023-01-26T06:57:22;101365.79;;;-0.36;99.37
51147;BME280;37207;53.060;18.726;2023-01-26T07:00:21;101363.92;;;-0.35;99.56
51147;BME280;37207;53.060;18.726;2023-01-26T07:03:09;101363.44;;;-0.34;99.20
51147;BME280;37207;53.060;18.726;2023-01-26T07:05:36;101357.09;;;-0.34;99.32
51147;BME280;37207;53.060;18.726;2023-01-26T07:08:02;101353.27;;;-0.32;99.45
51147;BME280;37207;53.060;18.726;2023-01-26T07:10:31;101355.91;;;-0.32;99.60
51147;BME280;37207;53.060;18.726;2023-01-26T07:12:58;101347.38;;;-0.31;99.16
51147;BME280;37207;53.060;18.726;2023-01-26T07:15:24;101345.52;;;-0.32;99.39
51147;BME280;37207;53.060;18.726;2023-01-26T07:17:51;101341.80;;;-0.30;99.22
51147;BME280;37207;53.060;18.726;2023-01-26T07:20:17;101346.84;;;-0.30;99.46
51147;BME280;37207;53.060;18.726;2023-01-26T07:22:44;101348.08;;;-0.29;99.37
51147;BME280;37207;53.060;18.726;2023-01-26T07:25:11;101359.48;;;-0.29;99.40
51147;BME280;37207;53.060;18.726;2023-01-26T07:27:37;101356.61;;;-0.28;99.34
51147;BME280;37207;53.060;18.726;2023-01-26T07:30:04;101349.55;;;-0.28;99.48
51147;BME280;37207;53.060;18.726;2023-01-26T07:32:31;101349.08;;;-0.27;99.37
51147;BME280;37207;53.060;18.726;2023-01-26T07:34:57;101347.75;;;-0.26;99.50
51147;BME280;37207;53.060;18.726;2023-01-26T07:37:28;101341.79;;;-0.25;99.41
51147;BME280;37207;53.060;18.726;2023-01-26T07:39:55;101349.61;;;-0.24;99.47
51147;BME280;37207;53.060;18.726;2023-01-26T07:42:22;101351.94;;;-0.23;99.52
51147;BME280;37207;53.060;18.726;2023-01-26T07:44:58;101350.16;;;-0.22;99.63
51147;BME280;37207;53.060;18.726;2023-01-26T07:47:25;101349.61;;;-0.21;99.49
51147;BME280;37207;53.060;18.726;2023-01-26T07:49:51;101344.17;;;-0.19;99.70
51147;BME280;37207;53.060;18.726;2023-01-26T07:52:18;101341.35;;;-0.16;99.47
51147;BME280;37207;53.060;18.726;2023-01-26T07:54:44;101343.98;;;-0.14;99.65
51147;BME280;37207;53.060;18.726;2023-01-26T07:57:11;101338.94;;;-0.12;99.37
51147;BME280;37207;53.060;18.726;2023-01-26T07:59:38;101333.35;;;-0.12;99.41
51147;BME280;37207;53.060;18.726;2023-01-26T08:02:04;101335.67;;;-0.11;99.63
51147;BME280;37207;53.060;18.726;2023-01-26T08:04:31;101329.84;;;-0.10;99.62
51147;BME280;37207;53.060;18.726;2023-01-26T08:06:57;101327.75;;;-0.09;99.73
51147;BME280;37207;53.060;18.726;2023-01-26T08:09:24;101334.51;;;-0.08;99.64
51147;BME280;37207;53.060;18.726;2023-01-26T08:11:51;101340.16;;;-0.07;99.61
51147;BME280;37207;53.060;18.726;2023-01-26T08:14:18;101343.73;;;-0.05;99.73
51147;BME280;37207;53.060;18.726;2023-01-26T08:16:44;101349.39;;;-0.05;99.48
51147;BME280;37207;53.060;18.726;2023-01-26T08:19:11;101349.39;;;-0.04;99.58
51147;BME280;37207;53.060;18.726;2023-01-26T08:21:38;101346.52;;;-0.03;99.72
51147;BME280;37207;53.060;18.726;2023-01-26T08:24:04;101345.90;;;-0.03;99.49
51147;BME280;37207;53.060;18.726;2023-01-26T08:26:31;101356.38;;;-0.02;99.60
51147;BME280;37207;53.060;18.726;2023-01-26T08:28:58;101356.52;;;-0.02;99.62
51147;BME280;37207;53.060;18.726;2023-01-26T08:31:24;101351.85;;;0.00;99.63
51147;BME280;37207;53.060;18.726;2023-01-26T08:33:54;101349.34;;;0.01;99.61
51147;BME280;37207;53.060;18.726;2023-01-26T08:36:21;101348.73;;;0.02;99.63
51147;BME280;37207;53.060;18.726;2023-01-26T08:38:48;101345.31;;;0.00;99.57
51147;BME280;37207;53.060;18.726;2023-01-26T08:41:16;101345.46;;;0.00;99.77
51147;BME280;37207;53.060;18.726;2023-01-26T08:43:43;101348.20;;;-0.00;99.34
51147;BME280;37207;53.060;18.726;2023-01-26T08:46:09;101348.53;;;-0.01;99.63
51147;BME280;37207;53.060;18.726;2023-01-26T08:48:36;101351.33;;;-0.01;99.47
51147;BME280;37207;53.060;18.726;2023-01-26T08:51:05;101354.35;;;-0.01;99.52
51147;BME280;37207;53.060;18.726;2023-01-26T08:53:33;101354.04;;;-0.00;99.37
51147;BME280;37207;53.060;18.726;2023-01-26T08:56:04;101352.30;;;0.02;99.58
51147;BME280;37207;53.060;18.726;2023-01-26T08:58:31;101348.64;;;0.04;99.63
51147;BME280;37207;53.060;18.726;2023-01-26T09:01:05;101346.85;;;0.06;99.43
51147;BME280;37207;53.060;18.726;2023-01-26T09:03:32;101349.48;;;0.06;99.54
51147;BME280;37207;53.060;18.726;2023-01-26T09:06:00;101347.15;;;0.08;99.40
51147;BME280;37207;53.060;18.726;2023-01-26T09:08:27;101347.63;;;0.09;99.60
51147;BME280;37207;53.060;18.726;2023-01-26T09:10:53;101347.46;;;0.11;99.41
51147;BME280;37207;53.060;18.726;2023-01-26T09:13:20;101352.95;;;0.14;99.64
51147;BME280;37207;53.060;18.726;2023-01-26T09:15:47;101351.48;;;0.15;99.59
51147;BME280;37207;53.060;18.726;2023-01-26T09:18:13;101348.27;;;0.18;99.58
51147;BME280;37207;53.060;18.726;2023-01-26T09:20:40;101346.39;;;0.20;99.59
51147;BME280;37207;53.060;18.726;2023-01-26T09:23:07;101347.39;;;0.21;99.54
51147;BME280;37207;53.060;18.726;2023-01-26T09:25:37;101346.23;;;0.21;99.31
51147;BME280;37207;53.060;18.726;2023-01-26T09:28:05;101337.99;;;0.22;99.24
51147;BME280;37207;53.060;18.726;2023-01-26T09:30:31;101332.48;;;0.23;99.37
51147;BME280;37207;53.060;18.726;2023-01-26T09:32:59;101332.48;;;0.23;98.99
51147;BME280;37207;53.060;18.726;2023-01-26T09:35:27;101331.31;;;0.23;99.12
51147;BME280;37207;53.060;18.726;2023-01-26T09:37:54;101331.08;;;0.23;99.09
51147;BME280;37207;53.060;18.726;2023-01-26T09:41:06;101321.84;;;0.24;99.19
51147;BME280;37207;53.060;18.726;2023-01-26T09:43:38;101320.11;;;0.27;99.22
51147;BME280;37207;53.060;18.726;2023-01-26T09:49:24;101315.30;;;0.31;99.31
51147;BME280;37207;53.060;18.726;2023-01-26T09:52:03;101312.23;;;0.33;99.17
51147;BME280;37207;53.060;18.726;2023-01-26T09:54:46;101307.55;;;0.38;99.21
51147;BME280;37207;53.060;18.726;2023-01-26T09:57:17;101310.64;;;0.40;99.25
51147;BME280;37207;53.060;18.726;2023-01-26T09:59:59;101310.23;;;0.42;99.22
51147;BME280;37207;53.060;18.726;2023-01-26T10:02:40;101304.56;;;0.44;98.99
51147;BME280;37207;53.060;18.726;2023-01-26T10:08:02;101304.32;;;0.46;98.85
51147;BME280;37207;53.060;18.726;2023-01-26T10:10:35;101302.98;;;0.47;99.01
51147;BME280;37207;53.060;18.726;2023-01-26T10:13:04;101302.28;;;0.49;98.78
51147;BME280;37207;53.060;18.726;2023-01-26T10:15:38;101304.12;;;0.52;98.87
51147;BME280;37207;53.060;18.726;2023-01-26T10:18:12;101304.56;;;0.53;98.79
51147;BME280;37207;53.060;18.726;2023-01-26T10:20:44;101295.63;;;0.54;98.78
51147;BME280;37207;53.060;18.726;2023-01-26T10:23:33;101293.75;;;0.55;98.73
51147;BME280;37207;53.060;18.726;2023-01-26T10:26:10;101284.66;;;0.56;98.76
51147;BME280;37207;53.060;18.726;2023-01-26T10:28:40;101287.14;;;0.57;98.82
51147;BME280;37207;53.060;18.726;2023-01-26T10:31:14;101291.02;;;0.58;98.61
51147;BME280;37207;53.060;18.726;2023-01-26T10:33:53;101291.56;;;0.58;98.65
51147;BME280;37207;53.060;18.726;2023-01-26T10:36:20;101286.90;;;0.59;98.71
51147;BME280;37207;53.060;18.726;2023-01-26T10:38:48;101277.50;;;0.58;98.38
51147;BME280;37207;53.060;18.726;2023-01-26T10:43:59;101266.41;;;0.56;98.06
51147;BME280;37207;53.060;18.726;2023-01-26T10:46:33;101268.75;;;0.54;98.18
51147;BME280;37207;53.060;18.726;2023-01-26T10:49:12;101272.33;;;0.53;98.08
51147;BME280;37207;53.060;18.726;2023-01-26T10:51:45;101273.33;;;0.53;98.18
51147;BME280;37207;53.060;18.726;2023-01-26T10:54:38;101274.50;;;0.53;98.23
51147;BME280;37207;53.060;18.726;2023-01-26T10:57:25;101274.61;;;0.52;98.05
51147;BME280;37207;53.060;18.726;2023-01-26T10:59:56;101273.54;;;0.51;97.98
51147;BME280;37207;53.060;18.726;2023-01-26T11:02:26;101273.92;;;0.51;98.10
51147;BME280;37207;53.060;18.726;2023-01-26T11:13:16;101261.11;;;0.51;97.95
51147;BME280;37207;53.060;18.726;2023-01-26T11:15:48;101257.77;;;0.51;98.04
51147;BME280;37207;53.060;18.726;2023-01-26T11:21:17;101254.10;;;0.52;97.88
51147;BME280;37207;53.060;18.726;2023-01-26T11:29:33;101251.54;;;0.52;97.83
51147;BME280;37207;53.060;18.726;2023-01-26T11:37:41;101246.21;;;0.55;97.97
51147;BME280;37207;53.060;18.726;2023-01-26T11:43:12;101243.66;;;0.54;97.94
51147;BME280;37207;53.060;18.726;2023-01-26T12:01:40;101224.46;;;0.55;97.60
51147;BME280;37207;53.060;18.726;2023-01-26T12:04:19;101224.61;;;0.57;97.83
51147;BME280;37207;53.060;18.726;2023-01-26T12:06:59;101221.42;;;0.57;97.83
51147;BME280;37207;53.060;18.726;2023-01-26T12:09:32;101219.71;;;0.57;97.67
51147;BME280;37207;53.060;18.726;2023-01-26T12:15:02;101211.41;;;0.57;97.45
51147;BME280;37207;53.060;18.726;2023-01-26T12:20:21;101198.51;;;0.58;97.44
51147;BME280;37207;53.060;18.726;2023-01-26T12:22:57;101194.92;;;0.60;97.53
51147;BME280;37207;53.060;18.726;2023-01-26T12:25:40;101195.67;;;0.62;97.63
51147;BME280;37207;53.060;18.726;2023-01-26T12:28:32;101194.34;;;0.64;97.56
51147;BME280;37207;53.060;18.726;2023-01-26T12:31:20;101201.48;;;0.66;97.52
51147;BME280;37207;53.060;18.726;2023-01-26T12:33:53;101198.98;;;0.67;97.50
51147;BME280;37207;53.060;18.726;2023-01-26T12:39:23;101197.20;;;0.67;97.27
51147;BME280;37207;53.060;18.726;2023-01-26T12:44:51;101198.36;;;0.67;97.36
51147;BME280;37207;53.060;18.726;2023-01-26T12:52:35;101192.06;;;0.66;97.21
51147;BME280;37207;53.060;18.726;2023-01-26T12:58:10;101184.40;;;0.70;97.21
51147;BME280;37207;53.060;18.726;2023-01-26T13:00:39;101181.42;;;0.72;97.34
51147;BME280;37207;53.060;18.726;2023-01-26T13:03:18;101182.02;;;0.74;97.35
51147;BME280;37207;53.060;18.726;2023-01-26T13:18:55;101176.36;;;0.82;97.04
51147;BME280;37207;53.060;18.726;2023-01-26T13:26:52;101187.58;;;0.79;96.90
51147;BME280;37207;53.060;18.726;2023-01-26T13:31:57;101189.15;;;0.77;97.03
51147;BME280;37207;53.060;18.726;2023-01-26T13:34:31;101185.35;;;0.76;97.13
51147;BME280;37207;53.060;18.726;2023-01-26T13:37:09;101183.09;;;0.77;97.23
51147;BME280;37207;53.060;18.726;2023-01-26T13:39:40;101177.19;;;0.77;97.18
51147;BME280;37207;53.060;18.726;2023-01-26T13:42:16;101175.65;;;0.76;97.17
51147;BME280;37207;53.060;18.726;2023-01-26T13:44:52;101172.33;;;0.72;96.93
51147;BME280;37207;53.060;18.726;2023-01-26T13:47:26;101170.66;;;0.69;97.02
51147;BME280;37207;53.060;18.726;2023-01-26T13:49:54;101167.82;;;0.68;96.87
51147;BME280;37207;53.060;18.726;2023-01-26T13:52:23;101168.14;;;0.67;96.97
51147;BME280;37207;53.060;18.726;2023-01-26T13:54:53;101164.81;;;0.65;96.92
51147;BME280;37207;53.060;18.726;2023-01-26T13:57:25;101165.35;;;0.65;97.00
51147;BME280;37207;53.060;18.726;2023-01-26T13:59:57;101166.98;;;0.66;97.17
51147;BME280;37207;53.060;18.726;2023-01-26T14:02:32;101156.58;;;0.65;97.03
51147;BME280;37207;53.060;18.726;2023-01-26T14:05:00;101153.02;;;0.64;97.01
51147;BME280;37207;53.060;18.726;2023-01-26T14:07:37;101148.59;;;0.63;97.00
51147;BME280;37207;53.060;18.726;2023-01-26T14:10:06;101158.58;;;0.67;97.27
51147;BME280;37207;53.060;18.726;2023-01-26T14:12:45;101153.11;;;0.69;97.31
51147;BME280;37207;53.060;18.726;2023-01-26T14:15:25;101159.14;;;0.70;97.22
51147;BME280;37207;53.060;18.726;2023-01-26T14:17:58;101167.84;;;0.72;97.21
51147;BME280;37207;53.060;18.726;2023-01-26T14:20:33;101169.61;;;0.73;97.26
51147;BME280;37207;53.060;18.726;2023-01-26T14:23:14;101175.90;;;0.73;97.02
51147;BME280;37207;53.060;18.726;2023-01-26T14:26:05;101172.09;;;0.73;97.08
51147;BME280;37207;53.060;18.726;2023-01-26T14:28:40;101175.91;;;0.73;97.16
51147;BME280;37207;53.060;18.726;2023-01-26T14:31:23;101179.80;;;0.72;97.15
51147;BME280;37207;53.060;18.726;2023-01-26T14:33:53;101179.02;;;0.72;97.26
51147;BME280;37207;53.060;18.726;2023-01-26T14:36:25;101180.83;;;0.71;97.36
51147;BME280;37207;53.060;18.726;2023-01-26T14:38:54;101181.08;;;0.69;97.19
51147;BME280;37207;53.060;18.726;2023-01-26T14:43:52;101180.41;;;0.66;97.18
51147;BME280;37207;53.060;18.726;2023-01-26T14:48:55;101179.21;;;0.61;97.19
51147;BME280;37207;53.060;18.726;2023-01-26T14:51:25;101176.13;;;0.58;96.99